sensor_id;sensor_type;location;lat;lon;timestamp;P1;durP1;ratioP1;P2;durP2;ratioP2
13891;SDS011;7016;48.172;8.058;2022-10-18T00:01:25;9.68;;;3.60;;
13891;SDS011;7016;48.172;8.058;2022-10-18T00:03:54;14.05;;;3.80;;
13891;SDS011;7016;48.172;8.058;2022-10-18T00:06:27;16.65;;;3.95;;
13891;SDS011;7016;48.172;8.058;2022-10-18T00:08:53;17.75;;;4.00;;
13891;SDS011;7016;48.172;8.058;2022-10-18T00:11:20;11.32;;;3.78;;
13891;SDS011;7016;48.172;8.058;2022-10-18T00:13:47;13.98;;;4.32;;
13891;SDS011;7016;48.172;8.058;2022-10-18T00:16:16;12.82;;;4.15;;
13891;SDS011;7016;48.172;8.058;2022-10-18T00:18:43;22.75;;;4.53;;
13891;SDS011;7016;48.172;8.058;2022-10-18T00:21:14;9.10;;;3.88;;
13891;SDS011;7016;48.172;8.058;2022-10-18T00:26:21;11.93;;;3.92;;
13891;SDS011;7016;48.172;8.058;2022-10-18T00:28:53;16.50;;;4.13;;
13891;SDS011;7016;48.172;8.058;2022-10-18T00:31:26;17.88;;;4.50;;
13891;SDS011;7016;48.172;8.058;2022-10-18T00:33:57;13.30;;;4.20;;
13891;SDS011;7016;48.172;8.058;2022-10-18T00:36:26;10.25;;;3.47;;
13891;SDS011;7016;48.172;8.058;2022-10-18T00:38:54;13.93;;;3.90;;
13891;SDS011;7016;48.172;8.058;2022-10-18T00:41:21;7.68;;;3.50;;
13891;SDS011;7016;48.172;8.058;2022-10-18T00:46:38;12.00;;;3.60;;
13891;SDS011;7016;48.172;8.058;2022-10-18T00:49:10;13.25;;;3.63;;
13891;SDS011;7016;48.172;8.058;2022-10-18T00:51:49;18.20;;;4.28;;
13891;SDS011;7016;48.172;8.058;2022-10-18T00:54:41;15.50;;;4.10;;
13891;SDS011;7016;48.172;8.058;2022-10-18T00:57:12;8.80;;;3.83;;
13891;SDS011;7016;48.172;8.058;2022-10-18T00:59:40;8.27;;;3.60;;
13891;SDS011;7016;48.172;8.058;2022-10-18T01:02:10;17.20;;;4.07;;
13891;SDS011;7016;48.172;8.058;2022-10-18T01:04:39;9.38;;;3.38;;
13891;SDS011;7016;48.172;8.058;2022-10-18T01:07:14;18.13;;;4.00;;
13891;SDS011;7016;48.172;8.058;2022-10-18T01:10:02;15.18;;;3.45;;
13891;SDS011;7016;48.172;8.058;2022-10-18T01:18:56;12.82;;;3.80;;
13891;SDS011;7016;48.172;8.058;2022-10-18T01:32:31;15.20;;;3.50;;
13891;SDS011;7016;48.172;8.058;2022-10-18T01:35:10;10.20;;;3.70;;
13891;SDS011;7016;48.172;8.058;2022-10-18T01:37:41;15.70;;;3.20;;
13891;SDS011;7016;48.172;8.058;2022-10-18T01:40:11;13.38;;;3.65;;
13891;SDS011;7016;48.172;8.058;2022-10-18T01:42:40;18.73;;;3.75;;
13891;SDS011;7016;48.172;8.058;2022-10-18T01:45:16;9.32;;;3.72;;
13891;SDS011;7016;48.172;8.058;2022-10-18T01:47:48;11.13;;;3.55;;
13891;SDS011;7016;48.172;8.058;2022-10-18T01:50:26;12.65;;;3.35;;
13891;SDS011;7016;48.172;8.058;2022-10-18T01:52:56;23.27;;;3.97;;
13891;SDS011;7016;48.172;8.058;2022-10-18T01:55:25;16.38;;;4.03;;
13891;SDS011;7016;48.172;8.058;2022-10-18T01:58:20;10.32;;;3.20;;
13891;SDS011;7016;48.172;8.058;2022-10-18T02:01:02;20.33;;;3.40;;
13891;SDS011;7016;48.172;8.058;2022-10-18T02:03:37;18.08;;;3.65;;
13891;SDS011;7016;48.172;8.058;2022-10-18T02:06:21;14.85;;;3.83;;
13891;SDS011;7016;48.172;8.058;2022-10-18T02:08:58;11.70;;;3.10;;
13891;SDS011;7016;48.172;8.058;2022-10-18T02:11:45;21.17;;;3.17;;
13891;SDS011;7016;48.172;8.058;2022-10-18T02:14:15;15.63;;;3.22;;
13891;SDS011;7016;48.172;8.058;2022-10-18T02:16:55;17.33;;;4.13;;
13891;SDS011;7016;48.172;8.058;2022-10-18T02:19:29;15.98;;;3.38;;
13891;SDS011;7016;48.172;8.058;2022-10-18T02:22:00;10.00;;;3.42;;
13891;SDS011;7016;48.172;8.058;2022-10-18T02:24:33;12.18;;;3.85;;
13891;SDS011;7016;48.172;8.058;2022-10-18T02:27:06;11.32;;;3.78;;
13891;SDS011;7016;48.172;8.058;2022-10-18T02:29:36;10.35;;;3.30;;
13891;SDS011;7016;48.172;8.058;2022-10-18T02:32:11;14.60;;;3.78;;
13891;SDS011;7016;48.172;8.058;2022-10-18T02:35:10;14.57;;;3.28;;
13891;SDS011;7016;48.172;8.058;2022-10-18T02:37:42;9.82;;;3.22;;
13891;SDS011;7016;48.172;8.058;2022-10-18T02:40:11;9.65;;;4.03;;
13891;SDS011;7016;48.172;8.058;2022-10-18T02:42:42;15.52;;;4.18;;
13891;SDS011;7016;48.172;8.058;2022-10-18T02:45:13;15.95;;;4.22;;
13891;SDS011;7016;48.172;8.058;2022-10-18T02:47:43;12.48;;;4.07;;
13891;SDS011;7016;48.172;8.058;2022-10-18T02:50:18;9.38;;;3.67;;
13891;SDS011;7016;48.172;8.058;2022-10-18T02:52:45;10.38;;;3.90;;
13891;SDS011;7016;48.172;8.058;2022-10-18T02:55:17;13.38;;;4.20;;
13891;SDS011;7016;48.172;8.058;2022-10-18T03:00:12;14.20;;;3.88;;
13891;SDS011;7016;48.172;8.058;2022-10-18T03:02:39;9.35;;;3.20;;
13891;SDS011;7016;48.172;8.058;2022-10-18T03:05:08;15.52;;;4.07;;
13891;SDS011;7016;48.172;8.058;2022-10-18T03:07:38;17.17;;;3.53;;
13891;SDS011;7016;48.172;8.058;2022-10-18T03:10:07;18.20;;;3.78;;
13891;SDS011;7016;48.172;8.058;2022-10-18T03:12:38;10.98;;;3.25;;
13891;SDS011;7016;48.172;8.058;2022-10-18T03:15:05;14.02;;;3.75;;
13891;SDS011;7016;48.172;8.058;2022-10-18T03:17:32;15.55;;;4.10;;
13891;SDS011;7016;48.172;8.058;2022-10-18T03:20:07;16.05;;;4.00;;
13891;SDS011;7016;48.172;8.058;2022-10-18T03:22:37;11.95;;;3.42;;
13891;SDS011;7016;48.172;8.058;2022-10-18T03:25:06;12.90;;;3.90;;
13891;SDS011;7016;48.172;8.058;2022-10-18T03:27:36;19.50;;;3.83;;
13891;SDS011;7016;48.172;8.058;2022-10-18T03:30:06;13.02;;;3.60;;
13891;SDS011;7016;48.172;8.058;2022-10-18T03:32:38;16.50;;;4.10;;
13891;SDS011;7016;48.172;8.058;2022-10-18T03:35:06;9.43;;;3.75;;
13891;SDS011;7016;48.172;8.058;2022-10-18T03:37:37;19.95;;;7.22;;
13891;SDS011;7016;48.172;8.058;2022-10-18T03:40:09;30.40;;;9.13;;
13891;SDS011;7016;48.172;8.058;2022-10-18T03:42:39;32.28;;;11.77;;
13891;SDS011;7016;48.172;8.058;2022-10-18T03:45:06;37.40;;;11.95;;
13891;SDS011;7016;48.172;8.058;2022-10-18T03:47:35;43.38;;;14.18;;
13891;SDS011;7016;48.172;8.058;2022-10-18T03:50:08;81.22;;;24.25;;
13891;SDS011;7016;48.172;8.058;2022-10-18T03:52:38;82.93;;;25.55;;
13891;SDS011;7016;48.172;8.058;2022-10-18T03:55:10;75.15;;;24.42;;
13891;SDS011;7016;48.172;8.058;2022-10-18T03:57:39;53.03;;;17.80;;
13891;SDS011;7016;48.172;8.058;2022-10-18T04:00:09;95.75;;;29.48;;
13891;SDS011;7016;48.172;8.058;2022-10-18T04:02:41;216.23;;;59.75;;
13891;SDS011;7016;48.172;8.058;2022-10-18T04:05:07;166.80;;;49.55;;
13891;SDS011;7016;48.172;8.058;2022-10-18T04:07:38;138.55;;;43.63;;
13891;SDS011;7016;48.172;8.058;2022-10-18T04:10:05;141.57;;;41.30;;
13891;SDS011;7016;48.172;8.058;2022-10-18T04:12:32;126.97;;;39.92;;
13891;SDS011;7016;48.172;8.058;2022-10-18T04:14:59;126.57;;;37.92;;
13891;SDS011;7016;48.172;8.058;2022-10-18T04:17:27;77.07;;;27.00;;
13891;SDS011;7016;48.172;8.058;2022-10-18T04:19:56;94.95;;;29.15;;
13891;SDS011;7016;48.172;8.058;2022-10-18T04:22:23;89.13;;;29.13;;
13891;SDS011;7016;48.172;8.058;2022-10-18T04:24:50;68.95;;;21.38;;
13891;SDS011;7016;48.172;8.058;2022-10-18T04:27:23;80.63;;;22.08;;
13891;SDS011;7016;48.172;8.058;2022-10-18T04:29:58;60.05;;;19.83;;
13891;SDS011;7016;48.172;8.058;2022-10-18T04:32:28;89.90;;;27.92;;
13891;SDS011;7016;48.172;8.058;2022-10-18T04:34:54;93.00;;;29.10;;
13891;SDS011;7016;48.172;8.058;2022-10-18T04:37:21;65.40;;;22.75;;
13891;SDS011;7016;48.172;8.058;2022-10-18T04:39:51;69.95;;;22.17;;
13891;SDS011;7016;48.172;8.058;2022-10-18T04:42:23;49.03;;;17.70;;
13891;SDS011;7016;48.172;8.058;2022-10-18T04:44:55;56.40;;;19.88;;
13891;SDS011;7016;48.172;8.058;2022-10-18T04:47:32;59.03;;;23.08;;
13891;SDS011;7016;48.172;8.058;2022-10-18T04:50:01;52.70;;;21.38;;
13891;SDS011;7016;48.172;8.058;2022-10-18T04:52:32;38.38;;;17.50;;
13891;SDS011;7016;48.172;8.058;2022-10-18T04:55:01;27.92;;;13.32;;
13891;SDS011;7016;48.172;8.058;2022-10-18T04:57:30;26.98;;;10.82;;
13891;SDS011;7016;48.172;8.058;2022-10-18T05:00:03;36.28;;;12.65;;
13891;SDS011;7016;48.172;8.058;2022-10-18T05:02:36;30.00;;;11.18;;
13891;SDS011;7016;48.172;8.058;2022-10-18T05:05:03;24.08;;;8.88;;
13891;SDS011;7016;48.172;8.058;2022-10-18T05:07:35;25.08;;;9.63;;
13891;SDS011;7016;48.172;8.058;2022-10-18T05:10:05;32.63;;;10.85;;
13891;SDS011;7016;48.172;8.058;2022-10-18T05:12:32;31.98;;;10.73;;
13891;SDS011;7016;48.172;8.058;2022-10-18T05:15:01;37.60;;;11.40;;
13891;SDS011;7016;48.172;8.058;2022-10-18T05:17:31;69.63;;;22.23;;
13891;SDS011;7016;48.172;8.058;2022-10-18T05:20:03;50.28;;;16.63;;
13891;SDS011;7016;48.172;8.058;2022-10-18T05:22:30;58.28;;;20.08;;
13891;SDS011;7016;48.172;8.058;2022-10-18T05:24:56;55.03;;;18.75;;
13891;SDS011;7016;48.172;8.058;2022-10-18T05:27:28;68.82;;;20.80;;
13891;SDS011;7016;48.172;8.058;2022-10-18T05:29:57;72.60;;;22.17;;
13891;SDS011;7016;48.172;8.058;2022-10-18T05:32:27;66.05;;;20.35;;
13891;SDS011;7016;48.172;8.058;2022-10-18T05:35:02;42.60;;;18.95;;
13891;SDS011;7016;48.172;8.058;2022-10-18T05:37:32;47.95;;;18.17;;
13891;SDS011;7016;48.172;8.058;2022-10-18T05:40:01;35.50;;;14.20;;
13891;SDS011;7016;48.172;8.058;2022-10-18T05:42:40;18.63;;;9.77;;
13891;SDS011;7016;48.172;8.058;2022-10-18T05:45:12;20.30;;;7.95;;
13891;SDS011;7016;48.172;8.058;2022-10-18T05:47:45;26.83;;;9.23;;
13891;SDS011;7016;48.172;8.058;2022-10-18T05:50:14;36.83;;;15.23;;
13891;SDS011;7016;48.172;8.058;2022-10-18T05:52:46;53.58;;;16.85;;
13891;SDS011;7016;48.172;8.058;2022-10-18T05:55:15;35.55;;;14.52;;
13891;SDS011;7016;48.172;8.058;2022-10-18T05:57:53;34.53;;;13.55;;
13891;SDS011;7016;48.172;8.058;2022-10-18T06:00:22;48.20;;;14.45;;
13891;SDS011;7016;48.172;8.058;2022-10-18T06:02:54;44.75;;;16.38;;
13891;SDS011;7016;48.172;8.058;2022-10-18T06:05:21;51.63;;;17.00;;
13891;SDS011;7016;48.172;8.058;2022-10-18T06:07:50;46.42;;;14.27;;
13891;SDS011;7016;48.172;8.058;2022-10-18T06:10:19;26.17;;;9.60;;
13891;SDS011;7016;48.172;8.058;2022-10-18T06:12:45;30.17;;;9.40;;
13891;SDS011;7016;48.172;8.058;2022-10-18T06:15:20;27.70;;;10.05;;
13891;SDS011;7016;48.172;8.058;2022-10-18T06:17:52;20.30;;;7.25;;
13891;SDS011;7016;48.172;8.058;2022-10-18T06:20:22;21.80;;;7.75;;
13891;SDS011;7016;48.172;8.058;2022-10-18T06:22:54;20.27;;;8.13;;
13891;SDS011;7016;48.172;8.058;2022-10-18T06:25:26;14.85;;;7.13;;
13891;SDS011;7016;48.172;8.058;2022-10-18T06:27:58;19.60;;;7.70;;
13891;SDS011;7016;48.172;8.058;2022-10-18T06:30:31;19.80;;;8.00;;
13891;SDS011;7016;48.172;8.058;2022-10-18T06:33:06;29.63;;;9.27;;
13891;SDS011;7016;48.172;8.058;2022-10-18T06:35:38;21.88;;;8.25;;
13891;SDS011;7016;48.172;8.058;2022-10-18T06:38:10;26.85;;;10.27;;
13891;SDS011;7016;48.172;8.058;2022-10-18T06:40:36;24.25;;;9.43;;
13891;SDS011;7016;48.172;8.058;2022-10-18T06:43:08;14.77;;;5.68;;
13891;SDS011;7016;48.172;8.058;2022-10-18T06:45:38;21.55;;;7.97;;
13891;SDS011;7016;48.172;8.058;2022-10-18T06:48:12;28.65;;;8.70;;
13891;SDS011;7016;48.172;8.058;2022-10-18T06:50:39;16.48;;;7.38;;
13891;SDS011;7016;48.172;8.058;2022-10-18T06:53:11;12.82;;;6.05;;
13891;SDS011;7016;48.172;8.058;2022-10-18T06:55:41;38.13;;;11.95;;
13891;SDS011;7016;48.172;8.058;2022-10-18T06:58:14;29.88;;;11.63;;
13891;SDS011;7016;48.172;8.058;2022-10-18T07:00:44;14.80;;;6.80;;
13891;SDS011;7016;48.172;8.058;2022-10-18T07:03:24;20.25;;;5.68;;
13891;SDS011;7016;48.172;8.058;2022-10-18T07:06:08;8.20;;;3.97;;
13891;SDS011;7016;48.172;8.058;2022-10-18T07:08:36;11.77;;;4.03;;
13891;SDS011;7016;48.172;8.058;2022-10-18T07:11:12;10.23;;;4.07;;
13891;SDS011;7016;48.172;8.058;2022-10-18T07:13:42;15.43;;;4.25;;
13891;SDS011;7016;48.172;8.058;2022-10-18T07:16:10;24.25;;;8.18;;
13891;SDS011;7016;48.172;8.058;2022-10-18T07:18:41;13.52;;;5.00;;
13891;SDS011;7016;48.172;8.058;2022-10-18T07:21:09;13.43;;;5.75;;
13891;SDS011;7016;48.172;8.058;2022-10-18T07:23:38;34.03;;;12.43;;
13891;SDS011;7016;48.172;8.058;2022-10-18T07:26:20;16.90;;;6.63;;
13891;SDS011;7016;48.172;8.058;2022-10-18T07:28:57;11.43;;;3.97;;
13891;SDS011;7016;48.172;8.058;2022-10-18T07:31:30;15.98;;;6.05;;
13891;SDS011;7016;48.172;8.058;2022-10-18T07:33:57;10.98;;;3.92;;
13891;SDS011;7016;48.172;8.058;2022-10-18T07:36:24;9.55;;;3.45;;
13891;SDS011;7016;48.172;8.058;2022-10-18T07:38:51;11.88;;;3.65;;
13891;SDS011;7016;48.172;8.058;2022-10-18T07:41:24;11.48;;;4.20;;
13891;SDS011;7016;48.172;8.058;2022-10-18T07:43:53;9.00;;;3.58;;
13891;SDS011;7016;48.172;8.058;2022-10-18T07:46:23;13.13;;;3.95;;
13891;SDS011;7016;48.172;8.058;2022-10-18T07:48:52;11.40;;;3.78;;
13891;SDS011;7016;48.172;8.058;2022-10-18T07:51:19;15.18;;;4.50;;
13891;SDS011;7016;48.172;8.058;2022-10-18T07:53:46;8.65;;;3.08;;
13891;SDS011;7016;48.172;8.058;2022-10-18T07:56:16;10.13;;;3.92;;
13891;SDS011;7016;48.172;8.058;2022-10-18T07:58:48;9.40;;;3.50;;
13891;SDS011;7016;48.172;8.058;2022-10-18T08:01:16;12.73;;;3.28;;
13891;SDS011;7016;48.172;8.058;2022-10-18T08:03:44;8.70;;;3.65;;
13891;SDS011;7016;48.172;8.058;2022-10-18T08:06:19;7.28;;;3.53;;
13891;SDS011;7016;48.172;8.058;2022-10-18T08:08:52;10.95;;;3.63;;
13891;SDS011;7016;48.172;8.058;2022-10-18T08:11:23;6.60;;;3.25;;
13891;SDS011;7016;48.172;8.058;2022-10-18T08:13:52;8.70;;;3.28;;
13891;SDS011;7016;48.172;8.058;2022-10-18T08:16:20;7.35;;;2.95;;
13891;SDS011;7016;48.172;8.058;2022-10-18T08:18:55;7.55;;;3.35;;
13891;SDS011;7016;48.172;8.058;2022-10-18T08:21:28;14.95;;;3.70;;
13891;SDS011;7016;48.172;8.058;2022-10-18T08:24:02;9.13;;;3.25;;
13891;SDS011;7016;48.172;8.058;2022-10-18T08:26:40;14.30;;;4.30;;
13891;SDS011;7016;48.172;8.058;2022-10-18T08:29:16;6.07;;;2.90;;
13891;SDS011;7016;48.172;8.058;2022-10-18T08:31:50;8.55;;;3.10;;
13891;SDS011;7016;48.172;8.058;2022-10-18T08:34:27;6.82;;;3.33;;
13891;SDS011;7016;48.172;8.058;2022-10-18T08:36:54;13.20;;;4.10;;
13891;SDS011;7016;48.172;8.058;2022-10-18T08:39:29;12.32;;;3.55;;
13891;SDS011;7016;48.172;8.058;2022-10-18T08:44:50;17.45;;;4.45;;
13891;SDS011;7016;48.172;8.058;2022-10-18T08:47:20;7.78;;;3.30;;
13891;SDS011;7016;48.172;8.058;2022-10-18T08:50:27;12.15;;;3.22;;
13891;SDS011;7016;48.172;8.058;2022-10-18T08:53:12;11.50;;;3.33;;
13891;SDS011;7016;48.172;8.058;2022-10-18T08:55:53;8.98;;;3.35;;
13891;SDS011;7016;48.172;8.058;2022-10-18T08:58:35;7.40;;;3.30;;
13891;SDS011;7016;48.172;8.058;2022-10-18T09:17:26;9.63;;;3.22;;
13891;SDS011;7016;48.172;8.058;2022-10-18T09:20:24;8.15;;;2.60;;
13891;SDS011;7016;48.172;8.058;2022-10-18T09:26:09;8.13;;;3.00;;
13891;SDS011;7016;48.172;8.058;2022-10-18T09:31:31;7.13;;;2.85;;
13891;SDS011;7016;48.172;8.058;2022-10-18T09:34:13;9.02;;;3.10;;
13891;SDS011;7016;48.172;8.058;2022-10-18T09:36:59;8.30;;;2.92;;
13891;SDS011;7016;48.172;8.058;2022-10-18T09:39:34;8.57;;;2.72;;
13891;SDS011;7016;48.172;8.058;2022-10-18T09:42:22;7.22;;;2.75;;
13891;SDS011;7016;48.172;8.058;2022-10-18T09:45:07;10.93;;;3.30;;
13891;SDS011;7016;48.172;8.058;2022-10-18T09:48:06;9.25;;;3.10;;
13891;SDS011;7016;48.172;8.058;2022-10-18T09:50:51;6.00;;;2.60;;
13891;SDS011;7016;48.172;8.058;2022-10-18T09:56:06;9.95;;;2.75;;
13891;SDS011;7016;48.172;8.058;2022-10-18T09:58:41;6.50;;;2.85;;
13891;SDS011;7016;48.172;8.058;2022-10-18T10:01:18;7.45;;;2.80;;
13891;SDS011;7016;48.172;8.058;2022-10-18T10:03:52;9.32;;;2.60;;
13891;SDS011;7016;48.172;8.058;2022-10-18T10:06:25;13.88;;;3.10;;
13891;SDS011;7016;48.172;8.058;2022-10-18T10:11:45;9.50;;;2.80;;
13891;SDS011;7016;48.172;8.058;2022-10-18T10:14:23;7.43;;;2.78;;
13891;SDS011;7016;48.172;8.058;2022-10-18T10:16:57;13.35;;;3.33;;
13891;SDS011;7016;48.172;8.058;2022-10-18T10:19:33;7.50;;;2.58;;
13891;SDS011;7016;48.172;8.058;2022-10-18T10:22:33;7.88;;;2.55;;
13891;SDS011;7016;48.172;8.058;2022-10-18T10:25:05;11.38;;;3.00;;
13891;SDS011;7016;48.172;8.058;2022-10-18T10:27:45;5.93;;;2.65;;
13891;SDS011;7016;48.172;8.058;2022-10-18T10:32:58;9.75;;;2.97;;
13891;SDS011;7016;48.172;8.058;2022-10-18T10:35:39;9.45;;;3.10;;
13891;SDS011;7016;48.172;8.058;2022-10-18T10:38:06;8.13;;;3.08;;
13891;SDS011;7016;48.172;8.058;2022-10-18T10:40:47;7.75;;;2.90;;
13891;SDS011;7016;48.172;8.058;2022-10-18T10:46:05;6.85;;;3.05;;
13891;SDS011;7016;48.172;8.058;2022-10-18T10:48:47;7.55;;;2.75;;
13891;SDS011;7016;48.172;8.058;2022-10-18T10:51:18;10.38;;;2.67;;
13891;SDS011;7016;48.172;8.058;2022-10-18T10:54:11;10.30;;;2.90;;
13891;SDS011;7016;48.172;8.058;2022-10-18T10:57:27;7.70;;;2.60;;
13891;SDS011;7016;48.172;8.058;2022-10-18T10:59:41;4.90;;;2.78;;
13891;SDS011;7016;48.172;8.058;2022-10-18T11:02:39;9.70;;;3.05;;
13891;SDS011;7016;48.172;8.058;2022-10-18T11:05:20;8.15;;;3.10;;
13891;SDS011;7016;48.172;8.058;2022-10-18T11:07:56;5.43;;;2.50;;
13891;SDS011;7016;48.172;8.058;2022-10-18T11:10:33;6.28;;;2.45;;
13891;SDS011;7016;48.172;8.058;2022-10-18T11:13:47;6.40;;;2.38;;
13891;SDS011;7016;48.172;8.058;2022-10-18T11:16:53;4.55;;;1.98;;
13891;SDS011;7016;48.172;8.058;2022-10-18T11:22:19;7.03;;;2.50;;
13891;SDS011;7016;48.172;8.058;2022-10-18T11:24:59;8.57;;;2.42;;
13891;SDS011;7016;48.172;8.058;2022-10-18T11:27:40;6.30;;;2.28;;
13891;SDS011;7016;48.172;8.058;2022-10-18T11:30:43;12.00;;;2.95;;
13891;SDS011;7016;48.172;8.058;2022-10-18T11:33:32;5.93;;;2.50;;
13891;SDS011;7016;48.172;8.058;2022-10-18T11:37:10;7.88;;;2.50;;
13891;SDS011;7016;48.172;8.058;2022-10-18T11:39:24;6.75;;;2.45;;
13891;SDS011;7016;48.172;8.058;2022-10-18T11:50:57;7.03;;;3.30;;
13891;SDS011;7016;48.172;8.058;2022-10-18T11:59:18;11.25;;;2.58;;
13891;SDS011;7016;48.172;8.058;2022-10-18T12:01:52;9.02;;;3.03;;
13891;SDS011;7016;48.172;8.058;2022-10-18T12:04:35;7.32;;;2.40;;
13891;SDS011;7016;48.172;8.058;2022-10-18T12:07:08;12.60;;;2.38;;
13891;SDS011;7016;48.172;8.058;2022-10-18T12:09:46;7.68;;;2.15;;
13891;SDS011;7016;48.172;8.058;2022-10-18T12:12:58;7.30;;;2.45;;
13891;SDS011;7016;48.172;8.058;2022-10-18T12:15:30;6.43;;;2.50;;
13891;SDS011;7016;48.172;8.058;2022-10-18T12:18:20;6.95;;;2.15;;
13891;SDS011;7016;48.172;8.058;2022-10-18T12:20:55;7.22;;;2.30;;
13891;SDS011;7016;48.172;8.058;2022-10-18T12:23:35;5.47;;;2.40;;
13891;SDS011;7016;48.172;8.058;2022-10-18T12:26:15;6.25;;;2.33;;
13891;SDS011;7016;48.172;8.058;2022-10-18T12:29:16;10.70;;;2.65;;
13891;SDS011;7016;48.172;8.058;2022-10-18T12:31:56;8.50;;;2.53;;
13891;SDS011;7016;48.172;8.058;2022-10-18T12:37:45;4.55;;;2.33;;
13891;SDS011;7016;48.172;8.058;2022-10-18T12:40:38;8.35;;;2.80;;
13891;SDS011;7016;48.172;8.058;2022-10-18T12:43:17;5.97;;;2.30;;
13891;SDS011;7016;48.172;8.058;2022-10-18T12:48:29;5.97;;;2.33;;
13891;SDS011;7016;48.172;8.058;2022-10-18T12:51:14;8.98;;;2.50;;
13891;SDS011;7016;48.172;8.058;2022-10-18T12:53:43;7.88;;;2.30;;
13891;SDS011;7016;48.172;8.058;2022-10-18T13:04:34;8.20;;;2.30;;
13891;SDS011;7016;48.172;8.058;2022-10-18T13:12:52;8.95;;;3.15;;
13891;SDS011;7016;48.172;8.058;2022-10-18T13:15:40;7.38;;;2.10;;
13891;SDS011;7016;48.172;8.058;2022-10-18T13:21:14;8.77;;;2.55;;
13891;SDS011;7016;48.172;8.058;2022-10-18T13:32:47;6.97;;;2.20;;
13891;SDS011;7016;48.172;8.058;2022-10-18T13:41:08;10.38;;;2.30;;
13891;SDS011;7016;48.172;8.058;2022-10-18T13:51:54;9.32;;;1.90;;
13891;SDS011;7016;48.172;8.058;2022-10-18T14:03:37;13.63;;;2.45;;
13891;SDS011;7016;48.172;8.058;2022-10-18T14:06:31;6.60;;;2.35;;
13891;SDS011;7016;48.172;8.058;2022-10-18T14:09:20;7.03;;;2.00;;
13891;SDS011;7016;48.172;8.058;2022-10-18T14:11:49;5.13;;;2.10;;
13891;SDS011;7016;48.172;8.058;2022-10-18T14:17:27;13.35;;;2.25;;
13891;SDS011;7016;48.172;8.058;2022-10-18T14:20:27;7.10;;;2.00;;
13891;SDS011;7016;48.172;8.058;2022-10-18T14:25:35;9.43;;;2.15;;
13891;SDS011;7016;48.172;8.058;2022-10-18T14:28:17;12.98;;;2.90;;
13891;SDS011;7016;48.172;8.058;2022-10-18T14:38:54;10.40;;;2.72;;
13891;SDS011;7016;48.172;8.058;2022-10-18T14:41:24;5.30;;;2.30;;
13891;SDS011;7016;48.172;8.058;2022-10-18T14:49:29;11.45;;;3.78;;
13891;SDS011;7016;48.172;8.058;2022-10-18T14:51:57;10.93;;;2.85;;
13891;SDS011;7016;48.172;8.058;2022-10-18T14:54:35;9.07;;;2.40;;
13891;SDS011;7016;48.172;8.058;2022-10-18T14:57:07;17.65;;;2.75;;
13891;SDS011;7016;48.172;8.058;2022-10-18T15:02:27;12.85;;;2.83;;
13891;SDS011;7016;48.172;8.058;2022-10-18T15:04:59;9.63;;;2.63;;
13891;SDS011;7016;48.172;8.058;2022-10-18T15:07:35;7.95;;;2.33;;
13891;SDS011;7016;48.172;8.058;2022-10-18T15:10:19;12.68;;;2.72;;
13891;SDS011;7016;48.172;8.058;2022-10-18T15:12:57;8.90;;;2.55;;
13891;SDS011;7016;48.172;8.058;2022-10-18T15:15:36;8.27;;;2.67;;
13891;SDS011;7016;48.172;8.058;2022-10-18T15:18:06;8.43;;;2.60;;
13891;SDS011;7016;48.172;8.058;2022-10-18T15:23:50;10.63;;;2.33;;
13891;SDS011;7016;48.172;8.058;2022-10-18T15:26:29;4.18;;;2.20;;
13891;SDS011;7016;48.172;8.058;2022-10-18T15:29:01;9.15;;;2.55;;
13891;SDS011;7016;48.172;8.058;2022-10-18T15:31:36;7.18;;;2.33;;
13891;SDS011;7016;48.172;8.058;2022-10-18T15:34:23;11.13;;;2.20;;
13891;SDS011;7016;48.172;8.058;2022-10-18T15:36:58;10.48;;;2.97;;
13891;SDS011;7016;48.172;8.058;2022-10-18T15:39:42;9.77;;;2.20;;
13891;SDS011;7016;48.172;8.058;2022-10-18T15:48:13;10.27;;;2.40;;
13891;SDS011;7016;48.172;8.058;2022-10-18T15:50:52;9.93;;;2.97;;
13891;SDS011;7016;48.172;8.058;2022-10-18T15:53:54;11.00;;;3.20;;
13891;SDS011;7016;48.172;8.058;2022-10-18T15:59:20;10.57;;;2.90;;
13891;SDS011;7016;48.172;8.058;2022-10-18T16:02:00;12.60;;;2.58;;
13891;SDS011;7016;48.172;8.058;2022-10-18T16:04:39;14.65;;;3.25;;
13891;SDS011;7016;48.172;8.058;2022-10-18T16:07:08;11.02;;;2.63;;
13891;SDS011;7016;48.172;8.058;2022-10-18T16:09:38;16.38;;;3.13;;
13891;SDS011;7016;48.172;8.058;2022-10-18T16:12:13;10.38;;;3.00;;
13891;SDS011;7016;48.172;8.058;2022-10-18T16:14:48;16.45;;;2.97;;
13891;SDS011;7016;48.172;8.058;2022-10-18T16:17:17;11.77;;;3.50;;
13891;SDS011;7016;48.172;8.058;2022-10-18T16:19:48;15.88;;;3.88;;
13891;SDS011;7016;48.172;8.058;2022-10-18T16:22:18;19.73;;;4.05;;
13891;SDS011;7016;48.172;8.058;2022-10-18T16:24:48;14.48;;;3.47;;
13891;SDS011;7016;48.172;8.058;2022-10-18T16:27:19;15.18;;;3.03;;
13891;SDS011;7016;48.172;8.058;2022-10-18T16:29:58;11.95;;;3.30;;
13891;SDS011;7016;48.172;8.058;2022-10-18T16:32:31;12.93;;;3.45;;
13891;SDS011;7016;48.172;8.058;2022-10-18T16:34:58;19.85;;;3.13;;
13891;SDS011;7016;48.172;8.058;2022-10-18T16:37:37;21.88;;;3.22;;
13891;SDS011;7016;48.172;8.058;2022-10-18T16:40:28;17.30;;;3.72;;
13891;SDS011;7016;48.172;8.058;2022-10-18T16:42:59;20.65;;;3.97;;
13891;SDS011;7016;48.172;8.058;2022-10-18T16:45:31;22.48;;;3.92;;
13891;SDS011;7016;48.172;8.058;2022-10-18T16:48:01;20.38;;;3.97;;
13891;SDS011;7016;48.172;8.058;2022-10-18T16:50:31;15.55;;;4.30;;
13891;SDS011;7016;48.172;8.058;2022-10-18T16:53:00;17.40;;;3.78;;
13891;SDS011;7016;48.172;8.058;2022-10-18T16:55:26;15.68;;;3.63;;
13891;SDS011;7016;48.172;8.058;2022-10-18T16:57:53;21.75;;;4.10;;
13891;SDS011;7016;48.172;8.058;2022-10-18T17:00:20;13.25;;;3.03;;
13891;SDS011;7016;48.172;8.058;2022-10-18T17:02:50;18.98;;;3.30;;
13891;SDS011;7016;48.172;8.058;2022-10-18T17:05:17;15.88;;;3.28;;
13891;SDS011;7016;48.172;8.058;2022-10-18T17:07:46;10.73;;;3.75;;
13891;SDS011;7016;48.172;8.058;2022-10-18T17:10:14;13.45;;;3.58;;
13891;SDS011;7016;48.172;8.058;2022-10-18T17:12:46;18.25;;;4.13;;
13891;SDS011;7016;48.172;8.058;2022-10-18T17:15:17;15.90;;;3.90;;
13891;SDS011;7016;48.172;8.058;2022-10-18T17:17:44;18.50;;;3.55;;
13891;SDS011;7016;48.172;8.058;2022-10-18T17:20:18;30.60;;;4.32;;
13891;SDS011;7016;48.172;8.058;2022-10-18T17:22:46;11.98;;;3.22;;
13891;SDS011;7016;48.172;8.058;2022-10-18T17:25:17;14.30;;;3.65;;
13891;SDS011;7016;48.172;8.058;2022-10-18T17:27:46;9.88;;;3.25;;
13891;SDS011;7016;48.172;8.058;2022-10-18T17:30:18;15.70;;;3.53;;
13891;SDS011;7016;48.172;8.058;2022-10-18T17:32:45;19.55;;;3.50;;
13891;SDS011;7016;48.172;8.058;2022-10-18T17:35:14;13.77;;;3.67;;
13891;SDS011;7016;48.172;8.058;2022-10-18T17:37:46;18.85;;;3.78;;
13891;SDS011;7016;48.172;8.058;2022-10-18T17:40:18;17.08;;;3.13;;
13891;SDS011;7016;48.172;8.058;2022-10-18T17:42:52;22.20;;;4.30;;
13891;SDS011;7016;48.172;8.058;2022-10-18T17:45:19;16.70;;;4.47;;
13891;SDS011;7016;48.172;8.058;2022-10-18T17:47:49;23.38;;;3.63;;
13891;SDS011;7016;48.172;8.058;2022-10-18T17:50:22;11.75;;;3.70;;
13891;SDS011;7016;48.172;8.058;2022-10-18T17:53:01;14.43;;;3.90;;
13891;SDS011;7016;48.172;8.058;2022-10-18T17:55:33;21.20;;;3.75;;
13891;SDS011;7016;48.172;8.058;2022-10-18T17:58:02;20.48;;;4.32;;
13891;SDS011;7016;48.172;8.058;2022-10-18T18:00:34;18.63;;;4.18;;
13891;SDS011;7016;48.172;8.058;2022-10-18T18:03:01;13.77;;;4.20;;
13891;SDS011;7016;48.172;8.058;2022-10-18T18:05:31;16.63;;;4.07;;
13891;SDS011;7016;48.172;8.058;2022-10-18T18:08:04;10.05;;;3.88;;
13891;SDS011;7016;48.172;8.058;2022-10-18T18:10:35;11.77;;;3.58;;
13891;SDS011;7016;48.172;8.058;2022-10-18T18:13:04;12.77;;;3.65;;
13891;SDS011;7016;48.172;8.058;2022-10-18T18:15:39;10.55;;;3.72;;
13891;SDS011;7016;48.172;8.058;2022-10-18T18:18:08;11.18;;;3.67;;
13891;SDS011;7016;48.172;8.058;2022-10-18T18:20:40;14.02;;;4.30;;